Terminal Aerodrome Forecast
Issued by NWS

Home | Current Version | Previous Version | Text Only | Print | Product List | Glossary On
Versions: 1 2 3 4 5 6 7 8 9 10 11 12
000
FTUS45 KRIW 182300
TAFJAC
TAF
KJAC 182339Z 1900/1924 20014G22KT P6SM SCT250
     FM190300 22008KT P6SM SKC
     FM190600 VRB05KT P6SM SCT020
     FM191000 VRB04KT P6SM VCFG BKN020
     FM191500 VRB05KT P6SM SCT025
     FM191900 20011KT P6SM SCT060
      AMD LTD TO CLD VIS AND WIND=

USA.gov is the U.S. government's official web portal to all federal, state and local government web resources and services.